Time;durP1;ratioP1;P1;durP2;ratioP2;P2;SDS_P1;SDS_P2;PMS_P1;PMS_P2;Temp;Humidity;BMP_temperature;BMP_pressure;BME280_temperature;BME280_humidity;BME280_pressure;Samples;Min_cycle;Max_cycle;Signal;HPM_P1;HPM_P2
2024/02/26 00:02:19;;;;;;;67.40;36.60;;;;;;;;;;109452;1252;58984;-79
2024/02/26 00:04:46;;;;;;;63.70;35.40;;;;;;;;;;109393;1253;58860;-79
2024/02/26 00:07:12;;;;;;;61.60;33.30;;;;;;;;;;109486;1252;58857;-82
2024/02/26 00:09:38;;;;;;;59.60;31.20;;;;;;;;;;106950;1254;61362;-79
2024/02/26 00:12:05;;;;;;;83.50;43.70;;;;;;;;;;106485;1253;61336;-78
2024/02/26 00:14:31;;;;;;;77.50;40.90;;;;;;;;;;106508;1256;61342;-78
2024/02/26 00:16:58;;;;;;;100.70;42.30;;;;;;;;;;107508;1253;61676;-78
2024/02/26 00:19:24;;;;;;;70.30;37.50;;;;;;;;;;109501;1253;59012;-79
2024/02/26 00:21:50;;;;;;;62.40;33.10;;;;;;;;;;109477;1252;59176;-82
2024/02/26 00:24:17;;;;;;;71.30;35.20;;;;;;;;;;109476;1252;58714;-79
2024/02/26 00:26:43;;;;;;;69.90;37.10;;;;;;;;;;109426;1252;59245;-83
2024/02/26 00:29:10;;;;;;;77.30;36.10;;;;;;;;;;107653;1253;61340;-82
2024/02/26 00:31:36;;;;;;;72.70;35.60;;;;;;;;;;107118;1253;61632;-82
2024/02/26 00:34:03;;;;;;;50.70;28.60;;;;;;;;;;107042;1253;61224;-81
2024/02/26 00:36:29;;;;;;;57.10;31.80;;;;;;;;;;106389;1258;61282;-82
2024/02/26 00:38:56;;;;;;;50.00;26.90;;;;;;;;;;106463;1253;61334;-78
2024/02/26 00:41:23;;;;;;;49.80;25.90;;;;;;;;;;106455;1253;61435;-78
2024/02/26 00:43:49;;;;;;;45.60;24.60;;;;;;;;;;106450;1253;61288;-77
2024/02/26 00:46:16;;;;;;;44.20;23.10;;;;;;;;;;106390;1253;61350;-78
2024/02/26 00:48:43;;;;;;;42.30;22.50;;;;;;;;;;106452;1256;61197;-78
2024/02/26 00:51:09;;;;;;;42.90;22.80;;;;;;;;;;106508;1252;61246;-78
2024/02/26 00:53:35;;;;;;;49.30;23.30;;;;;;;;;;106332;1254;62172;-81
2024/02/26 00:56:02;;;;;;;44.30;23.20;;;;;;;;;;106471;1253;61352;-78
2024/02/26 00:58:28;;;;;;;48.60;24.20;;;;;;;;;;106347;1259;61333;-82
2024/02/26 01:00:55;;;;;;;50.20;25.80;;;;;;;;;;106343;1258;61506;-78
2024/02/26 01:03:21;;;;;;;40.70;22.90;;;;;;;;;;106255;1259;61391;-81
2024/02/26 01:05:48;;;;;;;42.50;19.50;;;;;;;;;;106466;1256;61368;-82
2024/02/26 01:08:14;;;;;;;35.50;20.20;;;;;;;;;;106499;1256;62474;-78
2024/02/26 01:10:41;;;;;;;31.00;15.70;;;;;;;;;;106480;1254;61218;-77
2024/02/26 01:13:07;;;;;;;36.90;18.60;;;;;;;;;;106495;1256;61352;-78
2024/02/26 01:15:34;;;;;;;33.70;18.60;;;;;;;;;;106400;1257;61163;-81
2024/02/26 01:18:00;;;;;;;29.60;16.10;;;;;;;;;;106417;1256;61231;-82
2024/02/26 01:20:27;;;;;;;31.60;16.90;;;;;;;;;;106492;1254;61382;-78
2024/02/26 01:22:53;;;;;;;32.70;17.10;;;;;;;;;;108707;1253;58943;-81
2024/02/26 01:25:20;;;;;;;35.20;17.70;;;;;;;;;;106447;1253;61147;-78
2024/02/26 01:27:46;;;;;;;48.80;23.50;;;;;;;;;;106431;1254;61365;-78
2024/02/26 01:30:15;;;;;;;40.00;17.90;;;;;;;;;;106299;1257;61367;-78
2024/02/26 01:32:42;;;;;;;33.80;19.50;;;;;;;;;;106261;1254;61250;-81
2024/02/26 01:35:11;;;;;;;42.10;21.10;;;;;;;;;;106488;1253;61333;-82
2024/02/26 01:37:37;;;;;;;38.70;19.00;;;;;;;;;;106310;1259;61263;-78
2024/02/26 01:40:05;;;;;;;44.30;24.60;;;;;;;;;;107361;1253;62019;-78
2024/02/26 01:42:32;;;;;;;51.60;28.70;;;;;;;;;;106995;1253;61331;-82
2024/02/26 01:44:59;;;;;;;53.30;27.00;;;;;;;;;;106582;1256;61212;-83
2024/02/26 01:47:25;;;;;;;40.70;24.30;;;;;;;;;;106578;1253;61259;-82
2024/02/26 01:49:52;;;;;;;48.10;21.90;;;;;;;;;;106357;1254;61395;-78
2024/02/26 01:52:19;;;;;;;46.40;21.20;;;;;;;;;;106302;1254;61664;-78
2024/02/26 01:54:46;;;;;;;49.20;22.20;;;;;;;;;;106241;1259;62425;-81
2024/02/26 01:57:12;;;;;;;72.80;32.70;;;;;;;;;;106294;1253;61312;-78
2024/02/26 01:59:38;;;;;;;76.90;42.30;;;;;;;;;;106257;1254;61327;-81
2024/02/26 02:02:05;;;;;;;45.10;27.20;;;;;;;;;;106312;1258;61154;-78
2024/02/26 02:04:31;;;;;;;38.80;20.40;;;;;;;;;;106312;1254;61330;-78
2024/02/26 02:06:58;;;;;;;37.20;19.20;;;;;;;;;;108884;1253;58885;-82
2024/02/26 02:09:24;;;;;;;33.80;17.90;;;;;;;;;;108765;1253;59130;-82
2024/02/26 02:11:51;;;;;;;33.30;17.30;;;;;;;;;;106308;1253;62218;-78
2024/02/26 02:14:17;;;;;;;35.60;19.30;;;;;;;;;;106416;1253;62490;-81
2024/02/26 02:16:44;;;;;;;35.30;18.70;;;;;;;;;;106346;1255;61193;-79
2024/02/26 02:19:10;;;;;;;30.50;16.60;;;;;;;;;;106202;1259;62787;-78
2024/02/26 02:21:36;;;;;;;30.60;16.70;;;;;;;;;;106883;1253;61279;-78
2024/02/26 02:24:03;;;;;;;35.50;17.50;;;;;;;;;;109365;1253;58887;-82
2024/02/26 02:26:29;;;;;;;29.60;17.60;;;;;;;;;;108524;1253;61721;-82
2024/02/26 02:28:57;;;;;;;33.50;16.50;;;;;;;;;;109449;1253;63658;-78
2024/02/26 02:31:23;;;;;;;29.00;15.80;;;;;;;;;;109434;1253;58965;-78
2024/02/26 02:33:49;;;;;;;37.70;17.50;;;;;;;;;;107855;1256;61211;-78
2024/02/26 02:36:16;;;;;;;50.30;22.80;;;;;;;;;;106477;1254;61251;-78
2024/02/26 02:38:51;;;;;;;39.00;19.20;;;;;;;;;;106465;1251;62312;-82
2024/02/26 02:41:18;;;;;;;37.40;19.60;;;;;;;;;;106701;1251;61205;-81
2024/02/26 02:43:44;;;;;;;31.00;17.30;;;;;;;;;;109462;1252;59098;-78
2024/02/26 02:46:11;;;;;;;32.70;16.60;;;;;;;;;;106353;1259;61290;-78
2024/02/26 02:48:38;;;;;;;37.40;18.00;;;;;;;;;;106486;1256;61293;-81
2024/02/26 02:51:04;;;;;;;34.00;18.80;;;;;;;;;;106439;1256;61218;-81
2024/02/26 02:53:31;;;;;;;31.90;15.70;;;;;;;;;;106490;1253;59647;-82
2024/02/26 02:55:57;;;;;;;30.30;16.50;;;;;;;;;;106516;1256;61202;-78
2024/02/26 02:58:24;;;;;;;34.20;19.80;;;;;;;;;;106344;1254;61250;-81
2024/02/26 03:00:50;;;;;;;33.90;17.60;;;;;;;;;;107091;1253;61429;-84
2024/02/26 03:03:16;;;;;;;33.60;18.90;;;;;;;;;;107058;1254;61337;-84
2024/02/26 03:05:43;;;;;;;32.90;17.40;;;;;;;;;;107021;1259;61672;-84
2024/02/26 03:08:09;;;;;;;33.20;16.50;;;;;;;;;;107089;1254;61365;-80
2024/02/26 03:10:36;;;;;;;33.30;16.20;;;;;;;;;;106911;1253;61327;-84
2024/02/26 03:13:02;;;;;;;23.20;13.60;;;;;;;;;;107036;1256;59193;-84
2024/02/26 03:15:29;;;;;;;26.60;15.30;;;;;;;;;;107067;1256;61262;-84
2024/02/26 03:17:55;;;;;;;30.70;14.70;;;;;;;;;;107043;1256;61372;-80
2024/02/26 03:20:22;;;;;;;28.50;15.20;;;;;;;;;;107091;1253;61337;-80
2024/02/26 03:22:48;;;;;;;33.70;16.30;;;;;;;;;;107082;1258;61416;-84
2024/02/26 03:25:14;;;;;;;31.70;15.80;;;;;;;;;;107101;1256;59984;-84
2024/02/26 03:27:41;;;;;;;36.80;18.70;;;;;;;;;;107097;1256;61263;-81
2024/02/26 03:30:07;;;;;;;45.20;22.90;;;;;;;;;;107153;1253;61227;-81
2024/02/26 03:32:34;;;;;;;30.80;15.60;;;;;;;;;;106943;1254;61301;-81
2024/02/26 03:35:00;;;;;;;32.00;15.60;;;;;;;;;;107057;1256;61153;-80
2024/02/26 03:37:27;;;;;;;29.40;18.00;;;;;;;;;;106873;1258;61250;-81
2024/02/26 03:39:53;;;;;;;32.60;15.50;;;;;;;;;;107092;1253;61241;-84
2024/02/26 03:42:19;;;;;;;27.60;14.90;;;;;;;;;;106929;1254;61382;-80
2024/02/26 03:44:46;;;;;;;29.30;15.20;;;;;;;;;;107072;1256;61231;-80
2024/02/26 03:47:12;;;;;;;32.80;14.00;;;;;;;;;;107054;1253;61412;-81
2024/02/26 03:49:39;;;;;;;28.30;14.80;;;;;;;;;;106944;1253;61270;-84
2024/02/26 03:52:05;;;;;;;27.00;14.30;;;;;;;;;;107982;1253;60519;-79
2024/02/26 03:54:32;;;;;;;33.20;14.60;;;;;;;;;;108033;1258;61282;-78
2024/02/26 03:56:58;;;;;;;24.60;14.20;;;;;;;;;;106154;1259;62427;-81
2024/02/26 03:59:25;;;;;;;26.70;13.70;;;;;;;;;;106474;1254;61439;-78
2024/02/26 04:01:51;;;;;;;27.80;14.10;;;;;;;;;;106438;1253;61288;-77
2024/02/26 04:04:17;;;;;;;45.40;22.80;;;;;;;;;;106437;1254;61228;-78
2024/02/26 04:06:47;;;;;;;41.60;18.20;;;;;;;;;;106455;1254;61331;-81
2024/02/26 04:09:15;;;;;;;31.60;15.90;;;;;;;;;;107053;1253;61306;-81
2024/02/26 04:11:45;;;;;;;;;;;;;;;;;;107036;1254;61149;-80
2024/02/26 04:14:12;;;;;;;27.10;13.30;;;;;;;;;;107057;1253;61164;-84
2024/02/26 04:16:39;;;;;;;26.70;14.90;;;;;;;;;;107561;1254;61224;-81
2024/02/26 04:19:06;;;;;;;35.50;15.70;;;;;;;;;;109454;1254;62533;-82
2024/02/26 04:21:33;;;;;;;40.40;17.90;;;;;;;;;;108476;1254;60276;-77
2024/02/26 04:24:01;;;;;;;26.40;14.90;;;;;;;;;;106457;1254;61314;-78
2024/02/26 04:26:29;;;;;;;27.90;16.00;;;;;;;;;;106426;1254;61273;-79
2024/02/26 04:28:55;;;;;;;25.30;13.80;;;;;;;;;;107039;1254;61231;-84
2024/02/26 04:31:21;;;;;;;28.60;14.90;;;;;;;;;;107062;1256;61243;-84
2024/02/26 04:33:48;;;;;;;32.50;18.30;;;;;;;;;;107061;1256;61339;-80
2024/02/26 04:36:17;;;;;;;31.60;15.20;;;;;;;;;;107200;1256;61193;-84
2024/02/26 04:38:43;;;;;;;27.80;15.60;;;;;;;;;;109501;1253;58979;-79
2024/02/26 04:41:10;;;;;;;33.30;17.40;;;;;;;;;;109527;1253;58962;-82
2024/02/26 04:43:41;;;;;;;32.10;18.30;;;;;;;;;;108844;1254;61339;-81
2024/02/26 04:46:08;;;;;;;34.50;19.30;;;;;;;;;;106336;1257;61269;-78
2024/02/26 04:48:35;;;;;;;39.10;18.40;;;;;;;;;;106420;1257;61359;-77
2024/02/26 04:51:01;;;;;;;31.40;16.50;;;;;;;;;;106251;1259;61216;-78
2024/02/26 04:53:28;;;;;;;30.20;18.20;;;;;;;;;;106433;1254;61279;-81
2024/02/26 04:55:54;;;;;;;38.40;19.00;;;;;;;;;;106227;1259;61353;-78
2024/02/26 04:58:21;;;;;;;37.10;18.00;;;;;;;;;;106373;1263;61206;-81
2024/02/26 05:00:47;;;;;;;39.50;22.90;;;;;;;;;;106380;1259;61344;-83
2024/02/26 05:03:15;;;;;;;40.60;22.10;;;;;;;;;;107005;1253;61268;-80
2024/02/26 05:05:42;;;;;;;41.60;21.60;;;;;;;;;;106998;1259;61158;-79
2024/02/26 05:08:09;;;;;;;42.20;24.40;;;;;;;;;;106999;1254;62400;-80
2024/02/26 05:10:39;;;;;;;45.30;23.20;;;;;;;;;;107017;1259;61221;-83
2024/02/26 05:13:05;;;;;;;50.80;23.00;;;;;;;;;;106988;1254;61286;-83
2024/02/26 05:15:32;;;;;;;27.20;16.90;;;;;;;;;;106856;1254;61433;-79
2024/02/26 05:17:59;;;;;;;30.40;16.50;;;;;;;;;;108051;1257;61160;-83
2024/02/26 05:20:25;;;;;;;31.60;14.60;;;;;;;;;;107772;1257;61096;-83
2024/02/26 05:22:52;;;;;;;27.10;14.70;;;;;;;;;;107568;1257;61151;-79
2024/02/26 05:25:18;;;;;;;22.40;13.20;;;;;;;;;;108065;1254;61317;-83
2024/02/26 05:27:44;;;;;;;30.30;12.60;;;;;;;;;;106952;1254;61155;-82
2024/02/26 05:30:11;;;;;;;25.80;13.20;;;;;;;;;;106960;1254;61302;-79
2024/02/26 05:32:37;;;;;;;28.70;12.40;;;;;;;;;;106866;1254;61275;-82
2024/02/26 05:35:04;;;;;;;22.60;11.40;;;;;;;;;;106997;1252;61227;-83
2024/02/26 05:37:31;;;;;;;23.30;12.20;;;;;;;;;;107099;1254;61249;-82
2024/02/26 05:39:58;;;;;;;32.00;14.00;;;;;;;;;;107138;1251;61429;-83
2024/02/26 05:42:24;;;;;;;26.90;14.30;;;;;;;;;;109484;1251;58976;-79
2024/02/26 05:44:51;;;;;;;23.50;12.50;;;;;;;;;;109563;1251;61898;-83
2024/02/26 05:47:17;;;;;;;23.50;13.20;;;;;;;;;;108388;1255;207551;-82
2024/02/26 05:49:44;;;;;;;35.30;18.80;;;;;;;;;;107110;1254;61244;-83
2024/02/26 05:52:10;;;;;;;39.40;21.10;;;;;;;;;;106999;1256;61260;-79
2024/02/26 05:54:37;;;;;;;58.20;22.80;;;;;;;;;;107092;1257;62334;-82
2024/02/26 05:57:03;;;;;;;31.00;17.00;;;;;;;;;;107207;1254;59369;-78
2024/02/26 05:59:29;;;;;;;37.80;19.40;;;;;;;;;;106402;1257;62652;-79
2024/02/26 06:01:56;;;;;;;26.10;14.40;;;;;;;;;;108960;1253;59005;-79
2024/02/26 06:04:22;;;;;;;30.10;16.10;;;;;;;;;;109466;1254;59180;-79
2024/02/26 06:06:49;;;;;;;31.10;17.10;;;;;;;;;;109494;1253;58998;-83
2024/02/26 06:09:15;;;;;;;38.20;21.30;;;;;;;;;;109242;1254;59383;-83
2024/02/26 06:11:42;;;;;;;40.80;21.90;;;;;;;;;;109465;1254;59196;-83
2024/02/26 06:14:09;;;;;;;45.80;21.30;;;;;;;;;;109450;1251;59145;-79
2024/02/26 06:16:36;;;;;;;38.60;19.90;;;;;;;;;;108899;1254;58830;-79
2024/02/26 06:19:02;;;;;;;42.30;22.90;;;;;;;;;;106268;1257;61394;-79
2024/02/26 06:21:29;;;;;;;39.30;20.80;;;;;;;;;;108368;1253;61218;-79
2024/02/26 06:23:55;;;;;;;40.10;20.70;;;;;;;;;;109491;1251;58891;-83
2024/02/26 06:26:21;;;;;;;44.10;22.40;;;;;;;;;;109343;1256;59702;-83
2024/02/26 06:28:48;;;;;;;40.90;20.80;;;;;;;;;;107109;1257;61283;-83
2024/02/26 06:31:14;;;;;;;38.00;20.80;;;;;;;;;;107087;1257;61274;-83
2024/02/26 06:33:41;;;;;;;45.70;23.00;;;;;;;;;;107061;1257;62145;-84
2024/02/26 06:36:07;;;;;;;49.90;24.20;;;;;;;;;;107103;1257;61093;-80
2024/02/26 06:38:34;;;;;;;42.50;23.30;;;;;;;;;;107153;1254;61201;-82
2024/02/26 06:41:01;;;;;;;51.00;27.90;;;;;;;;;;106973;1255;61382;-83
2024/02/26 06:43:27;;;;;;;78.40;36.70;;;;;;;;;;107077;1257;61263;-79
2024/02/26 06:45:54;;;;;;;65.10;32.20;;;;;;;;;;107214;1257;61147;-79
2024/02/26 06:48:20;;;;;;;57.80;31.70;;;;;;;;;;106992;1251;61345;-81
2024/02/26 06:50:47;;;;;;;64.20;31.90;;;;;;;;;;106986;1252;61061;-79
2024/02/26 06:53:13;;;;;;;72.40;33.90;;;;;;;;;;106975;1254;61439;-82
2024/02/26 06:55:40;;;;;;;67.80;35.00;;;;;;;;;;107096;1254;61263;-79
2024/02/26 06:58:06;;;;;;;59.80;30.40;;;;;;;;;;107101;1254;61937;-82
2024/02/26 07:00:33;;;;;;;68.90;34.60;;;;;;;;;;107162;1254;60283;-83
2024/02/26 07:02:59;;;;;;;53.00;32.00;;;;;;;;;;107153;1254;62401;-79
2024/02/26 07:05:27;;;;;;;54.70;31.40;;;;;;;;;;107127;1257;62051;-79
2024/02/26 07:07:53;;;;;;;51.70;28.70;;;;;;;;;;107242;1251;61192;-82
2024/02/26 07:10:19;;;;;;;48.40;29.20;;;;;;;;;;107761;1258;61209;-79
2024/02/26 07:12:46;;;;;;;65.50;33.90;;;;;;;;;;107084;1256;59264;-82
2024/02/26 07:15:13;;;;;;;51.20;29.80;;;;;;;;;;107232;1254;61286;-79
2024/02/26 07:17:41;;;;;;;57.70;32.60;;;;;;;;;;107207;1260;61155;-79
2024/02/26 07:20:08;;;;;;;66.40;31.80;;;;;;;;;;106664;1254;61373;-79
2024/02/26 07:22:35;;;;;;;73.10;34.40;;;;;;;;;;106699;1254;61335;-83
2024/02/26 07:25:01;;;;;;;53.80;32.00;;;;;;;;;;107157;1254;61212;-82
2024/02/26 07:27:28;;;;;;;54.80;30.10;;;;;;;;;;108434;1251;61204;-79
2024/02/26 07:29:54;;;;;;;47.00;30.20;;;;;;;;;;109481;1251;58873;-83
2024/02/26 07:32:20;;;;;;;37.80;24.80;;;;;;;;;;109417;1254;59204;-83
2024/02/26 07:34:47;;;;;;;37.90;23.10;;;;;;;;;;107640;1257;61215;-82
2024/02/26 07:37:13;;;;;;;48.20;23.10;;;;;;;;;;107292;1251;61253;-82
2024/02/26 07:39:40;;;;;;;41.10;23.90;;;;;;;;;;107315;1254;61775;-79
2024/02/26 07:42:06;;;;;;;42.90;24.70;;;;;;;;;;106539;1260;61277;-79
2024/02/26 07:44:33;;;;;;;41.20;23.40;;;;;;;;;;108237;1253;59191;-79
2024/02/26 07:46:59;;;;;;;37.60;24.20;;;;;;;;;;109412;1254;59439;-79
2024/02/26 07:49:26;;;;;;;39.40;22.40;;;;;;;;;;109460;1254;59374;-82
2024/02/26 07:51:52;;;;;;;43.00;25.00;;;;;;;;;;107506;1254;61282;-79
2024/02/26 07:54:19;;;;;;;43.20;23.50;;;;;;;;;;107355;1254;61259;-82
2024/02/26 07:56:45;;;;;;;42.20;23.70;;;;;;;;;;108736;1254;59226;-83
2024/02/26 07:59:11;;;;;;;42.70;25.40;;;;;;;;;;109415;1253;60496;-83
2024/02/26 08:01:39;;;;;;;42.50;27.00;;;;;;;;;;109366;1254;59435;-82
2024/02/26 08:04:07;;;;;;;46.10;28.70;;;;;;;;;;109404;1253;59254;-80
2024/02/26 08:06:33;;;;;;;57.80;33.70;;;;;;;;;;109144;1252;59230;-80
2024/02/26 08:09:00;;;;;;;43.60;26.80;;;;;;;;;;109336;1253;58950;-80
2024/02/26 08:11:26;;;;;;;46.80;26.40;;;;;;;;;;109431;1252;59115;-83
2024/02/26 08:13:53;;;;;;;48.80;29.10;;;;;;;;;;109423;1253;59037;-83
2024/02/26 08:16:19;;;;;;;42.20;22.10;;;;;;;;;;109411;1254;59116;-83
2024/02/26 08:18:45;;;;;;;39.10;22.90;;;;;;;;;;109360;1256;58900;-79
2024/02/26 08:21:12;;;;;;;38.30;23.60;;;;;;;;;;109405;1251;59025;-80
2024/02/26 08:23:38;;;;;;;49.30;27.20;;;;;;;;;;109401;1254;59356;-79
2024/02/26 08:26:07;;;;;;;47.90;25.20;;;;;;;;;;109251;1259;59181;-79
2024/02/26 08:28:33;;;;;;;45.70;27.40;;;;;;;;;;109393;1252;59908;-80
2024/02/26 08:30:59;;;;;;;49.60;27.00;;;;;;;;;;109378;1251;59319;-78
2024/02/26 08:33:26;;;;;;;47.10;27.00;;;;;;;;;;109456;1254;58830;-78
2024/02/26 08:35:53;;;;;;;51.10;27.30;;;;;;;;;;109464;1252;61545;-81
2024/02/26 08:38:19;;;;;;;56.40;33.90;;;;;;;;;;109435;1255;58865;-80
2024/02/26 08:40:45;;;;;;;43.20;28.30;;;;;;;;;;109481;1251;59163;-81
2024/02/26 08:43:12;;;;;;;55.30;31.40;;;;;;;;;;109426;1253;58990;-81
2024/02/26 08:45:38;;;;;;;50.30;32.50;;;;;;;;;;109352;1253;59276;-80
2024/02/26 08:48:05;;;;;;;65.90;31.20;;;;;;;;;;109169;1259;58999;-78
2024/02/26 08:50:31;;;;;;;50.80;29.60;;;;;;;;;;109416;1251;58854;-81
2024/02/26 08:52:58;;;;;;;39.90;26.70;;;;;;;;;;109396;1253;58953;-78
2024/02/26 08:55:25;;;;;;;55.30;26.10;;;;;;;;;;109272;1254;59130;-80
2024/02/26 08:57:51;;;;;;;33.40;20.50;;;;;;;;;;109476;1251;58874;-78
2024/02/26 09:00:20;;;;;;;34.90;20.40;;;;;;;;;;109223;1251;62100;-77
2024/02/26 09:02:47;;;;;;;30.10;19.10;;;;;;;;;;109363;1251;59256;-81
2024/02/26 09:05:13;;;;;;;34.60;18.20;;;;;;;;;;109431;1251;59187;-77
2024/02/26 09:07:40;;;;;;;26.00;15.40;;;;;;;;;;109443;1251;59114;-78
2024/02/26 09:10:10;;;;;;;30.10;16.90;;;;;;;;;;107947;1253;61253;-78
2024/02/26 09:12:37;;;;;;;25.50;16.30;;;;;;;;;;106676;1256;61948;-83
2024/02/26 09:15:04;;;;;;;24.40;15.30;;;;;;;;;;107609;1255;60975;-79
2024/02/26 09:17:30;;;;;;;24.30;16.10;;;;;;;;;;107590;1251;61036;-82
2024/02/26 09:19:56;;;;;;;29.90;14.90;;;;;;;;;;107284;1251;61304;-83
2024/02/26 09:22:23;;;;;;;32.50;18.30;;;;;;;;;;107251;1253;61228;-82
2024/02/26 09:24:51;;;;;;;228.10;115.60;;;;;;;;;;107078;1253;61237;-82
2024/02/26 09:27:17;;;;;;;56.10;32.60;;;;;;;;;;107657;1252;61491;-80
2024/02/26 09:29:44;;;;;;;33.00;20.30;;;;;;;;;;107208;1259;61248;-79
2024/02/26 09:32:10;;;;;;;30.50;15.00;;;;;;;;;;107241;1256;61153;-80
2024/02/26 09:34:39;;;;;;;18.00;11.70;;;;;;;;;;107351;1254;59347;-80
2024/02/26 09:37:05;;;;;;;26.70;13.10;;;;;;;;;;107193;1257;61979;-82
2024/02/26 09:39:32;;;;;;;24.70;14.10;;;;;;;;;;107529;1252;61315;-78
2024/02/26 09:41:59;;;;;;;19.70;12.70;;;;;;;;;;106640;1258;61248;-81
2024/02/26 09:44:26;;;;;;;19.50;13.80;;;;;;;;;;109390;1255;59145;-81
2024/02/26 09:46:52;;;;;;;20.50;12.80;;;;;;;;;;109426;1251;59149;-81
2024/02/26 09:49:19;;;;;;;21.00;12.80;;;;;;;;;;109283;1253;59380;-82
2024/02/26 09:51:47;;;;;;;27.20;13.90;;;;;;;;;;109419;1253;59521;-82
2024/02/26 09:54:13;;;;;;;20.30;12.50;;;;;;;;;;109375;1253;60822;-82
2024/02/26 09:56:40;;;;;;;16.10;11.10;;;;;;;;;;109392;1252;59201;-79
2024/02/26 09:59:13;;;;;;;15.20;9.90;;;;;;;;;;109339;1251;58936;-79
2024/02/26 10:01:39;;;;;;;15.50;8.90;;;;;;;;;;109430;1251;62399;-82
2024/02/26 10:04:06;;;;;;;15.90;8.30;;;;;;;;;;109407;1254;58940;-82
2024/02/26 10:06:32;;;;;;;13.60;9.50;;;;;;;;;;109378;1253;59695;-79
2024/02/26 10:08:59;;;;;;;13.10;8.60;;;;;;;;;;109311;1251;58934;-82
2024/02/26 10:11:25;;;;;;;13.20;8.00;;;;;;;;;;109330;1253;58938;-79
2024/02/26 10:13:52;;;;;;;10.50;6.60;;;;;;;;;;109445;1252;59268;-82
2024/02/26 10:16:18;;;;;;;11.60;6.20;;;;;;;;;;109400;1251;58997;-82
2024/02/26 10:18:48;;;;;;;8.40;4.80;;;;;;;;;;109388;1252;58925;-82
2024/02/26 10:21:20;;;;;;;11.30;6.30;;;;;;;;;;109393;1251;59147;-82
2024/02/26 10:23:47;;;;;;;14.90;9.80;;;;;;;;;;108981;1254;59177;-82
2024/02/26 10:26:14;;;;;;;14.20;7.10;;;;;;;;;;107253;1253;63058;-82
2024/02/26 10:28:41;;;;;;;9.20;4.50;;;;;;;;;;107462;1251;61128;-78
2024/02/26 10:31:08;;;;;;;7.50;3.10;;;;;;;;;;106427;1254;61325;-82
2024/02/26 10:33:37;;;;;;;6.70;4.20;;;;;;;;;;106646;1253;61337;-81
2024/02/26 10:36:05;;;;;;;10.60;3.80;;;;;;;;;;106450;1251;61273;-79
2024/02/26 10:38:35;;;;;;;3.60;2.20;;;;;;;;;;106489;1251;61405;-79
2024/02/26 10:41:02;;;;;;;7.30;5.10;;;;;;;;;;107319;1253;61345;-82
2024/02/26 10:43:29;;;;;;;183.70;129.30;;;;;;;;;;107304;1254;61231;-81
2024/02/26 10:45:55;;;;;;;103.10;78.80;;;;;;;;;;107409;1251;61416;-79
2024/02/26 10:48:22;;;;;;;48.60;27.20;;;;;;;;;;107411;1251;59124;-82
2024/02/26 10:50:49;;;;;;;32.50;8.30;;;;;;;;;;107411;1251;61171;-79
2024/02/26 10:53:16;;;;;;;18.50;5.80;;;;;;;;;;107078;1252;59606;-79
2024/02/26 10:55:43;;;;;;;5.70;3.50;;;;;;;;;;107481;1254;61312;-79
2024/02/26 10:58:09;;;;;;;5.70;3.50;;;;;;;;;;107736;1251;61231;-79
2024/02/26 11:00:36;;;;;;;6.80;3.50;;;;;;;;;;107574;1255;59785;-83
2024/02/26 11:03:03;;;;;;;4.80;3.00;;;;;;;;;;107543;1253;61916;-82
2024/02/26 11:05:30;;;;;;;6.00;3.20;;;;;;;;;;107473;1252;61153;-82
2024/02/26 11:07:57;;;;;;;7.20;5.80;;;;;;;;;;107671;1253;61131;-79
2024/02/26 11:10:24;;;;;;;5.30;3.30;;;;;;;;;;107318;1253;60238;-79
2024/02/26 11:12:51;;;;;;;13.00;4.40;;;;;;;;;;107335;1251;61244;-79
2024/02/26 11:15:17;;;;;;;8.00;5.50;;;;;;;;;;107139;1251;61056;-82
2024/02/26 11:17:44;;;;;;;11.70;5.40;;;;;;;;;;107161;1254;61231;-79
2024/02/26 11:20:12;;;;;;;26.60;6.40;;;;;;;;;;107157;1254;61339;-81
2024/02/26 11:22:38;;;;;;;6.00;4.40;;;;;;;;;;107293;1251;61244;-82
2024/02/26 11:25:06;;;;;;;6.30;5.20;;;;;;;;;;107306;1256;61294;-82
2024/02/26 11:27:37;;;;;;;4.90;3.30;;;;;;;;;;107616;1251;63161;-79
2024/02/26 11:30:05;;;;;;;5.70;3.60;;;;;;;;;;107682;1252;61250;-82
2024/02/26 11:32:31;;;;;;;10.30;7.00;;;;;;;;;;107467;1253;62202;-79
2024/02/26 11:34:58;;;;;;;6.40;4.20;;;;;;;;;;107366;1253;61311;-79
2024/02/26 11:37:25;;;;;;;8.20;6.00;;;;;;;;;;107449;1251;61200;-78
2024/02/26 11:39:51;;;;;;;14.20;7.70;;;;;;;;;;107533;1251;61334;-82
2024/02/26 11:42:18;;;;;;;21.80;8.90;;;;;;;;;;107412;1251;61235;-79
2024/02/26 11:44:44;;;;;;;12.20;8.60;;;;;;;;;;107177;1251;61285;-81
2024/02/26 11:47:17;;;;;;;21.40;9.10;;;;;;;;;;107438;1253;61263;-79
2024/02/26 11:49:44;;;;;;;13.90;6.70;;;;;;;;;;107560;1251;61198;-81
2024/02/26 11:52:10;;;;;;;10.30;7.50;;;;;;;;;;107609;1254;61256;-79
2024/02/26 11:54:43;;;;;;;10.20;6.70;;;;;;;;;;107337;1251;61170;-79
2024/02/26 11:57:20;;;;;;;20.10;8.90;;;;;;;;;;107594;1252;61238;-83
2024/02/26 11:59:47;;;;;;;27.90;8.00;;;;;;;;;;107665;1253;61252;-79
2024/02/26 12:02:33;;;;;;;14.80;7.30;;;;;;;;;;107517;1251;61247;-79
2024/02/26 12:04:59;;;;;;;9.80;6.40;;;;;;;;;;107280;1252;62628;-81
2024/02/26 12:07:26;;;;;;;12.30;7.10;;;;;;;;;;107425;1254;59817;-82
2024/02/26 12:09:53;;;;;;;15.00;7.30;;;;;;;;;;107283;1254;61340;-81
2024/02/26 12:12:19;;;;;;;15.80;8.10;;;;;;;;;;107351;1253;61762;-82
2024/02/26 12:14:52;;;;;;;19.90;12.00;;;;;;;;;;107189;1259;61200;-83
2024/02/26 12:17:19;;;;;;;24.70;13.60;;;;;;;;;;107384;1253;62001;-82
2024/02/26 12:19:46;;;;;;;13.60;8.30;;;;;;;;;;107322;1257;59582;-82
2024/02/26 12:22:12;;;;;;;16.40;9.60;;;;;;;;;;107173;1255;61289;-79
2024/02/26 12:24:39;;;;;;;29.40;15.60;;;;;;;;;;107291;1253;61372;-82
2024/02/26 12:27:06;;;;;;;15.00;10.20;;;;;;;;;;107165;1257;61284;-80
2024/02/26 12:29:32;;;;;;;21.50;10.90;;;;;;;;;;107569;1251;61327;-82
2024/02/26 12:31:59;;;;;;;19.00;8.90;;;;;;;;;;107418;1253;61301;-78
2024/02/26 12:34:26;;;;;;;10.70;5.80;;;;;;;;;;107328;1253;59535;-79
2024/02/26 12:36:53;;;;;;;9.10;4.30;;;;;;;;;;107291;1259;61390;-82
2024/02/26 12:39:20;;;;;;;7.30;4.60;;;;;;;;;;107321;1254;61187;-81
2024/02/26 12:41:50;;;;;;;14.90;4.90;;;;;;;;;;107426;1253;61969;-81
2024/02/26 12:44:16;;;;;;;9.10;4.70;;;;;;;;;;107397;1254;61362;-81
2024/02/26 12:46:43;;;;;;;9.60;6.70;;;;;;;;;;107273;1253;61241;-82
2024/02/26 12:49:09;;;;;;;9.20;6.90;;;;;;;;;;107446;1251;60876;-79
2024/02/26 12:51:35;;;;;;;6.70;4.20;;;;;;;;;;107329;1251;61327;-79
2024/02/26 12:54:02;;;;;;;18.10;6.50;;;;;;;;;;107191;1253;61103;-79
2024/02/26 12:56:29;;;;;;;10.80;4.60;;;;;;;;;;107250;1254;61243;-79
2024/02/26 12:58:55;;;;;;;12.70;5.90;;;;;;;;;;107509;1255;61168;-81
2024/02/26 13:01:23;;;;;;;10.70;6.40;;;;;;;;;;107291;1256;59229;-82
2024/02/26 13:03:50;;;;;;;38.90;9.30;;;;;;;;;;107225;1253;61275;-82
2024/02/26 13:06:17;;;;;;;16.00;7.10;;;;;;;;;;107214;1256;61544;-82
2024/02/26 13:08:43;;;;;;;19.40;5.20;;;;;;;;;;107435;1253;61275;-79
2024/02/26 13:11:10;;;;;;;9.50;4.20;;;;;;;;;;106309;1256;61203;-82
2024/02/26 13:13:36;;;;;;;11.70;4.10;;;;;;;;;;107401;1256;61297;-82
2024/02/26 13:16:08;;;;;;;6.40;4.30;;;;;;;;;;107341;1253;61265;-82
2024/02/26 13:18:34;;;;;;;14.40;7.60;;;;;;;;;;109373;1253;61900;-79
2024/02/26 13:21:07;;;;;;;21.50;10.50;;;;;;;;;;107298;1253;61259;-79
2024/02/26 13:23:33;;;;;;;18.10;12.90;;;;;;;;;;107259;1253;61085;-79
2024/02/26 13:26:00;;;;;;;22.90;15.80;;;;;;;;;;107355;1253;62171;-79
2024/02/26 13:28:28;;;;;;;42.10;15.80;;;;;;;;;;107448;1253;61343;-82
2024/02/26 13:30:57;;;;;;;32.80;14.10;;;;;;;;;;107412;1253;61578;-82
2024/02/26 13:33:24;;;;;;;31.50;16.00;;;;;;;;;;107236;1252;60996;-82
2024/02/26 13:35:50;;;;;;;27.50;16.50;;;;;;;;;;107115;1253;61331;-83
2024/02/26 13:38:17;;;;;;;22.30;13.40;;;;;;;;;;107476;1251;61211;-82
2024/02/26 13:40:44;;;;;;;22.60;12.90;;;;;;;;;;107190;1253;61211;-79
2024/02/26 13:43:10;;;;;;;27.10;16.80;;;;;;;;;;107290;1259;61312;-82
2024/02/26 13:45:40;;;;;;;31.40;17.30;;;;;;;;;;107528;1253;61228;-79
2024/02/26 13:48:07;;;;;;;26.70;17.10;;;;;;;;;;107615;1253;59789;-79
2024/02/26 13:50:33;;;;;;;26.70;16.80;;;;;;;;;;107485;1252;61188;-81
2024/02/26 13:53:00;;;;;;;31.20;16.50;;;;;;;;;;107337;1253;61196;-78
2024/02/26 13:55:28;;;;;;;184.10;105.20;;;;;;;;;;107342;1256;61202;-82
2024/02/26 13:57:55;;;;;;;131.80;66.00;;;;;;;;;;107448;1253;59317;-83
2024/02/26 14:00:21;;;;;;;35.60;21.30;;;;;;;;;;107260;1251;61363;-82
2024/02/26 14:02:47;;;;;;;110.90;24.00;;;;;;;;;;107232;1256;59181;-79
2024/02/26 14:05:14;;;;;;;10.10;8.10;;;;;;;;;;107373;1253;59427;-83
2024/02/26 14:07:41;;;;;;;10.00;6.00;;;;;;;;;;107577;1253;59585;-83